»·PEaware :: PHTIM KAVX-KSAN

PHTIM :: KAVX-KSAN

FLIGHT INFORMATION

Flight Status: Arrived
Operator: Unknown
More flights by this operator :: More flights under this callsign
Pilot: Tim P. (6337)
Aircraft: CESSNA 172 SKYHAWK
(C172)
More flights by this aircraft type
Origin: KAVX Catalina
United States
Destination: KSAN San Diego Intl-Lindbergh
United States
More flights between these airports :: More routes between these airports
Route: SXC V208 OCN V23 MZB
File this flight plan on PilotEdge
Remarks: CSTP56, I-8 rating
Altitude:
(Current/Filed)
5,000ft
Speed:
(Current/Filed)
105kts
Departed: 04-Dec-18 10:59 AM
Arrived: 04-Dec-18 12:06 PM
Distance/Time
Traveled:
74nm/1:06
Distance/Time
To Go:
Arrived

Flight Plot

Page will automatically refresh every two minutes.


Map Options




Map Legend


Flown Route
Filed Route
Departure Airport
Arrival Airport
Navaid (VOR, NDB)
Fix

Horizontal Profiles

Position Reports

Time Latitude Longitude Heading Altitude Ground
Speed
04-Dec-18 10:15 33.403881 -118.414878 254 1570ft 0kts
04-Dec-18 10:16 33.403881 -118.414878 254 1570ft 0kts
04-Dec-18 10:17 33.403881 -118.414878 254 1570ft 0kts
04-Dec-18 10:18 33.403881 -118.414878 254 1570ft 0kts
04-Dec-18 10:19 33.403881 -118.414878 254 1570ft 0kts
04-Dec-18 10:20 33.403881 -118.414878 254 1570ft 0kts
04-Dec-18 10:21 33.403881 -118.414878 254 1570ft 0kts
04-Dec-18 10:22 33.403881 -118.414878 254 1570ft 0kts
04-Dec-18 10:23 33.403881 -118.414878 254 1570ft 0kts
04-Dec-18 10:24 33.403881 -118.414878 254 1570ft 0kts
04-Dec-18 10:25 33.403881 -118.414878 254 1570ft 0kts
04-Dec-18 10:26 33.403881 -118.414878 254 1570ft 0kts
04-Dec-18 10:27 33.403881 -118.414878 254 1570ft 0kts
04-Dec-18 10:28 33.403881 -118.414878 254 1570ft 0kts
04-Dec-18 10:29 33.403881 -118.414878 254 1570ft 0kts
04-Dec-18 10:30 33.403881 -118.414878 254 1570ft 0kts
04-Dec-18 10:31 33.403881 -118.414878 254 1570ft 0kts
04-Dec-18 10:32 33.403881 -118.414878 254 1570ft 0kts
04-Dec-18 10:33 33.403881 -118.414878 254 1570ft 0kts
04-Dec-18 10:34 33.403881 -118.414878 254 1570ft 0kts
04-Dec-18 10:35 33.403881 -118.414878 254 1570ft 0kts
04-Dec-18 10:36 33.403881 -118.414878 254 1570ft 0kts
04-Dec-18 10:37 33.403881 -118.414878 254 1570ft 0kts
04-Dec-18 10:38 33.403881 -118.414878 254 1570ft 0kts
04-Dec-18 10:39 33.403881 -118.414878 254 1570ft 0kts
04-Dec-18 10:40 33.403881 -118.414878 254 1570ft 0kts
04-Dec-18 10:41 33.403881 -118.414878 254 1570ft 0kts
04-Dec-18 10:42 33.403881 -118.414878 254 1570ft 0kts
04-Dec-18 10:43 33.403881 -118.414878 254 1570ft 0kts
04-Dec-18 10:44 33.403881 -118.414878 254 1570ft 0kts
04-Dec-18 10:45 33.403881 -118.414878 254 1570ft 0kts
04-Dec-18 10:46 33.403881 -118.414878 254 1570ft 0kts
04-Dec-18 10:47 33.403881 -118.414878 254 1570ft 0kts
04-Dec-18 10:48 33.403881 -118.414878 254 1570ft 0kts
04-Dec-18 10:49 33.403881 -118.414878 254 1570ft 0kts
04-Dec-18 10:50 33.403881 -118.414878 254 1570ft 0kts
04-Dec-18 10:51 33.403881 -118.414878 254 1570ft 0kts
04-Dec-18 10:52 33.403881 -118.414878 254 1570ft 0kts
04-Dec-18 10:53 33.404702 -118.415064 7 1570ft 8kts
04-Dec-18 10:54 33.406437 -118.412629 54 1570ft 11kts
04-Dec-18 10:55 33.407199 -118.411378 349 1570ft 0kts
04-Dec-18 10:56 33.407199 -118.411378 349 1570ft 0kts
04-Dec-18 10:57 33.407199 -118.411378 349 1570ft 0kts
04-Dec-18 10:58 33.404171 -118.417207 237 1599ft 77kts
04-Dec-18 10:59 33.391467 -118.441471 241 2274ft 86kts
04-Dec-18 11:00 33.375330 -118.434285 120 2986ft 81kts
04-Dec-18 11:01 33.370196 -118.408661 88 3659ft 80kts
04-Dec-18 11:02 33.369744 -118.382345 85 4323ft 79kts
04-Dec-18 11:03 33.365877 -118.355931 102 4918ft 81kts
04-Dec-18 11:04 33.359355 -118.323544 90 4964ft 104kts
04-Dec-18 11:05 33.355996 -118.289152 90 4878ft 102kts
04-Dec-18 11:06 33.352861 -118.255146 101 4807ft 103kts
04-Dec-18 11:08 33.343008 -118.223173 108 4800ft 103kts
04-Dec-18 11:09 33.335274 -118.191444 91 4858ft 96kts
04-Dec-18 11:10 33.332688 -118.158365 92 4864ft 101kts
04-Dec-18 11:11 33.328991 -118.125421 95 4923ft 101kts
04-Dec-18 11:12 33.323927 -118.092461 97 4988ft 100kts
04-Dec-18 11:13 33.320090 -118.059295 92 5021ft 101kts
04-Dec-18 11:14 33.314961 -118.026104 99 5062ft 103kts
04-Dec-18 11:15 33.309852 -117.992174 93 5006ft 108kts
04-Dec-18 11:16 33.306400 -117.956821 91 4948ft 107kts
04-Dec-18 11:17 33.302574 -117.921760 93 4899ft 106kts
04-Dec-18 11:18 33.298605 -117.886647 94 4836ft 107kts
04-Dec-18 11:19 33.293463 -117.851737 96 4789ft 107kts
04-Dec-18 11:20 33.286417 -117.818688 100 4871ft 102kts
04-Dec-18 11:21 33.280924 -117.785921 92 4864ft 103kts
04-Dec-18 11:22 33.278944 -117.751440 89 4848ft 102kts
04-Dec-18 11:23 33.278457 -117.716956 87 4821ft 104kts
04-Dec-18 11:24 33.276458 -117.682460 93 4803ft 105kts
04-Dec-18 11:25 33.273486 -117.647976 87 4807ft 102kts
04-Dec-18 11:25 33.269324 -117.619967 103 4851ft 100kts
04-Dec-18 11:27 33.260507 -117.581932 93 4855ft 102kts
04-Dec-18 11:28 33.256264 -117.548060 114 4853ft 106kts
04-Dec-18 11:29 33.231798 -117.527418 148 4873ft 111kts
04-Dec-18 11:30 33.203833 -117.512879 152 4897ft 110kts
04-Dec-18 11:30 33.180996 -117.499391 147 4918ft 108kts
04-Dec-18 11:32 33.150148 -117.478289 147 4920ft 110kts
04-Dec-18 11:32 33.128468 -117.462529 141 4937ft 108kts
04-Dec-18 11:34 33.099824 -117.437567 137 4949ft 107kts
04-Dec-18 11:34 33.078594 -117.421681 150 4958ft 110kts
04-Dec-18 11:35 33.050128 -117.407841 152 4971ft 110kts
04-Dec-18 11:36 33.022051 -117.392635 149 4981ft 109kts
04-Dec-18 11:37 32.995449 -117.374864 143 4976ft 110kts
04-Dec-18 11:38 32.969440 -117.355724 145 4997ft 109kts
04-Dec-18 11:39 32.942870 -117.338075 141 4982ft 110kts
04-Dec-18 11:40 32.917902 -117.316761 141 4995ft 109kts
04-Dec-18 11:41 32.891840 -117.297877 148 4944ft 112kts
04-Dec-18 11:42 32.862816 -117.283422 152 4904ft 112kts
04-Dec-18 11:43 32.846311 -117.255984 107 4841ft 107kts
04-Dec-18 11:44 32.836076 -117.222671 102 4791ft 107kts
04-Dec-18 11:45 32.827183 -117.188994 97 4751ft 106kts
04-Dec-18 11:46 32.818117 -117.156509 108 4819ft 103kts
04-Dec-18 11:47 32.809258 -117.124500 108 4858ft 104kts
04-Dec-18 11:48 32.800225 -117.092629 102 4935ft 101kts
04-Dec-18 11:49 32.791038 -117.060693 105 4985ft 101kts
04-Dec-18 11:50 32.782902 -117.028289 101 4998ft 104kts
04-Dec-18 11:51 32.775155 -116.995062 102 4917ft 111kts
04-Dec-18 11:52 32.767523 -116.961485 102 4978ft 103kts
04-Dec-18 11:53 32.759703 -116.928215 102 4971ft 105kts
04-Dec-18 11:54 32.751780 -116.894984 100 4991ft 104kts
04-Dec-18 11:55 32.735669 -116.870610 195 4880ft 121kts
04-Dec-18 11:56 32.704594 -116.880777 190 4912ft 115kts
04-Dec-18 11:57 32.681400 -116.904949 250 4466ft 134kts
04-Dec-18 11:58 32.674153 -116.947310 288 3669ft 134kts
04-Dec-18 11:59 32.684500 -116.984911 289 3439ft 122kts
04-Dec-18 12:00 32.693944 -117.027554 289 2659ft 135kts
04-Dec-18 12:01 32.704028 -117.068323 288 2091ft 133kts
04-Dec-18 12:02 32.713958 -117.109204 289 1486ft 133kts
04-Dec-18 12:03 32.723696 -117.148839 290 618ft 112kts
04-Dec-18 12:04 32.730207 -117.175867 291 146ft 65kts
04-Dec-18 12:05 32.733948 -117.188067 28 18ft 1kts
04-Dec-18 12:06 32.734005 -117.188030 30 18ft 2kts
04-Dec-18 12:07 32.733621 -117.185177 107 18ft 10kts
04-Dec-18 12:08 32.732645 -117.181159 107 17ft 13kts
04-Dec-18 12:09 32.732466 -117.177506 99 20ft 6kts
04-Dec-18 12:10 32.732108 -117.176646 190 23ft 0kts
04-Dec-18 12:11 32.732108 -117.176646 190 23ft 0kts
04-Dec-18 12:12 32.732108 -117.176646 190 23ft 0kts

Navigation Log

Ident Type
Flight plan parsing failed, navigation log unavailable